Hesperia, Michigan
Current Conditions -  °F | °C
As of 5:30 AM on Friday 24 Oct 2014 (Local Time) from KFFX Reporting Station
Overcast Overcast  
Wind Chill: 47°   Ceiling: 2900
Heat Index: 47°   Visibility: 10mi
Dew Point: 45°   Wind: 0mph
Humidity: 91%   Direction: NA
Pressure: 30.03"   Gusts: NA
Location:  43.57°N, 86.04°W
Report Text: KFFX 240930Z AUTO 00000KT 10SM OVC029 09/07 A3003 RMK AO2 T00860072
Loading
Personal Weather Stations






























Interactive Weather Map New forecast layout! Learn more

10-Day Weather Forecast

Advertisements
Track Severe Weather on mobile